createdAt,value
2023-01-17T00:02:24.434Z,23.97
2023-01-17T00:05:11.298Z,23.57
2023-01-17T00:07:57.579Z,24.27
2023-01-17T00:10:28.195Z,24.10
2023-01-17T00:12:58.690Z,23.00
2023-01-17T00:15:30.056Z,24.43
2023-01-17T00:17:59.348Z,24.47
2023-01-17T00:20:47.633Z,26.73
2023-01-17T00:23:35.260Z,25.10
2023-01-17T00:26:04.858Z,24.53
2023-01-17T00:28:34.462Z,24.87
2023-01-17T00:31:04.903Z,25.63
2023-01-17T00:33:32.921Z,25.03
2023-01-17T00:36:02.349Z,24.00
2023-01-17T00:38:31.674Z,24.03
2023-01-17T00:41:03.460Z,24.70
2023-01-17T00:43:50.537Z,23.63
2023-01-17T00:46:38.923Z,22.03
2023-01-17T00:49:25.474Z,23.57
2023-01-17T00:52:11.786Z,22.67
2023-01-17T00:54:58.127Z,22.87
2023-01-17T00:57:44.593Z,24.23
2023-01-17T01:00:31.549Z,23.17
2023-01-17T01:03:18.904Z,23.87
2023-01-17T01:06:05.551Z,23.27
2023-01-17T01:08:51.426Z,23.27
2023-01-17T01:11:39.496Z,22.07
2023-01-17T01:14:26.657Z,23.63
2023-01-17T01:17:12.942Z,23.50
2023-01-17T01:20:00.152Z,23.67
2023-01-17T01:22:46.493Z,24.30
2023-01-17T01:25:32.803Z,24.67
2023-01-17T01:28:23.620Z,24.23
2023-01-17T01:31:10.550Z,25.50
2023-01-17T01:33:39.554Z,24.63
2023-01-17T01:36:11.445Z,22.97
2023-01-17T01:38:40.675Z,23.53
2023-01-17T01:41:09.868Z,24.43
2023-01-17T01:43:47.851Z,22.77
2023-01-17T01:46:21.019Z,22.83
2023-01-17T01:48:53.144Z,22.07
2023-01-17T01:51:27.876Z,23.17
2023-01-17T01:54:01.329Z,21.37
2023-01-17T01:56:31.545Z,21.50
2023-01-17T01:59:01.927Z,21.43
2023-01-17T02:01:32.447Z,22.63
2023-01-17T02:04:01.648Z,20.83
2023-01-17T02:06:35.705Z,20.43
2023-01-17T02:09:08.662Z,17.47
2023-01-17T02:11:39.516Z,19.33
2023-01-17T02:14:10.652Z,17.13
2023-01-17T02:16:51.742Z,17.40
2023-01-17T02:19:49.286Z,14.90
2023-01-17T02:22:41.290Z,14.00
2023-01-17T02:25:51.159Z,11.13
2023-01-17T02:28:35.537Z,9.53
2023-01-17T02:31:12.254Z,9.50
2023-01-17T02:33:49.271Z,11.33
2023-01-17T02:36:24.526Z,8.03
2023-01-17T02:38:56.889Z,5.27
2023-01-17T02:41:32.544Z,7.30
2023-01-17T02:44:04.159Z,7.43
2023-01-17T02:46:34.689Z,6.17
2023-01-17T02:49:03.567Z,6.00
2023-01-17T02:51:47.894Z,5.20
2023-01-17T02:55:01.682Z,5.50
2023-01-17T02:57:47.351Z,4.97
2023-01-17T03:00:24.221Z,3.83
2023-01-17T03:03:02.329Z,4.20
2023-01-17T03:05:35.526Z,4.03
2023-01-17T03:08:05.248Z,3.27
2023-01-17T03:10:35.507Z,3.40
2023-01-17T03:13:05.359Z,3.57
2023-01-17T03:15:34.356Z,2.83
2023-01-17T03:18:08.475Z,2.93
2023-01-17T03:20:37.525Z,2.63
2023-01-17T03:23:07.818Z,2.50
2023-01-17T03:25:36.764Z,2.70
2023-01-17T03:28:05.865Z,2.90
2023-01-17T03:30:34.903Z,2.60
2023-01-17T03:33:05.355Z,2.90
2023-01-17T03:35:34.618Z,4.13
2023-01-17T03:38:03.487Z,3.43
2023-01-17T03:40:32.327Z,4.07
2023-01-17T03:43:01.153Z,4.20
2023-01-17T03:45:30.171Z,4.30
2023-01-17T03:47:59.247Z,5.00
2023-01-17T03:50:29.717Z,6.27
2023-01-17T03:52:58.446Z,6.40
2023-01-17T03:55:27.961Z,7.67
2023-01-17T03:57:56.710Z,8.27
2023-01-17T04:00:25.580Z,8.10
2023-01-17T04:02:55.439Z,8.60
2023-01-17T04:05:23.932Z,8.10
2023-01-17T04:07:53.755Z,8.23
2023-01-17T04:10:22.829Z,8.13
2023-01-17T04:12:51.485Z,7.63
2023-01-17T04:15:20.314Z,7.30
2023-01-17T04:17:49.311Z,6.80
2023-01-17T04:20:28.571Z,7.60
2023-01-17T04:22:58.536Z,5.87
2023-01-17T04:25:27.931Z,6.60
2023-01-17T04:27:57.209Z,6.03
2023-01-17T04:30:26.073Z,4.40
2023-01-17T04:32:55.279Z,4.47
2023-01-17T04:35:24.417Z,4.10
2023-01-17T04:37:53.412Z,3.60
2023-01-17T04:40:23.759Z,3.40
2023-01-17T04:42:52.763Z,3.57
2023-01-17T04:45:21.977Z,2.90
2023-01-17T04:47:51.012Z,2.53
2023-01-17T04:50:19.893Z,2.80
2023-01-17T04:52:48.826Z,2.43
2023-01-17T04:55:17.523Z,2.30
2023-01-17T04:57:48.842Z,2.53
2023-01-17T05:00:18.447Z,2.10
2023-01-17T05:02:47.306Z,2.20
2023-01-17T05:05:16.513Z,2.30
2023-01-17T05:07:45.545Z,2.03
2023-01-17T05:10:14.916Z,2.43
2023-01-17T05:12:44.001Z,2.00
2023-01-17T05:15:14.531Z,2.20
2023-01-17T05:17:44.435Z,1.90
2023-01-17T05:20:13.514Z,2.10
2023-01-17T05:22:42.434Z,1.80
2023-01-17T05:25:11.531Z,1.77
2023-01-17T05:27:40.575Z,2.23
2023-01-17T05:30:09.983Z,1.97
2023-01-17T05:32:39.808Z,1.80
2023-01-17T05:35:09.396Z,1.87
2023-01-17T05:37:38.396Z,1.70
2023-01-17T05:40:09.890Z,2.33
2023-01-17T05:42:38.847Z,1.97
2023-01-17T05:45:10.082Z,2.00
2023-01-17T05:47:40.283Z,2.10
2023-01-17T05:50:09.423Z,2.37
2023-01-17T05:52:38.287Z,2.40
2023-01-17T05:55:08.165Z,2.33
2023-01-17T05:57:37.261Z,2.03
2023-01-17T06:00:07.172Z,2.70
2023-01-17T06:02:36.216Z,2.37
2023-01-17T06:05:07.102Z,2.37
2023-01-17T06:07:36.257Z,2.60
2023-01-17T06:10:05.047Z,3.07
2023-01-17T06:12:33.981Z,2.40
2023-01-17T06:15:03.086Z,2.43
2023-01-17T06:17:32.078Z,2.87
2023-01-17T06:20:01.145Z,2.60
2023-01-17T06:22:31.525Z,2.73
2023-01-17T06:25:00.525Z,2.63
2023-01-17T06:27:29.453Z,2.30
2023-01-17T06:29:58.287Z,2.50
2023-01-17T06:32:27.315Z,2.27
2023-01-17T06:34:56.442Z,2.23
2023-01-17T06:37:25.972Z,1.83
2023-01-17T06:39:55.933Z,2.97
2023-01-17T06:42:25.201Z,6.60
2023-01-17T06:44:54.098Z,6.00
2023-01-17T06:47:22.957Z,7.87
2023-01-17T06:49:52.064Z,8.93
2023-01-17T06:52:21.122Z,11.57
2023-01-17T06:54:50.111Z,9.30
2023-01-17T06:57:20.296Z,6.33
2023-01-17T06:59:49.205Z,2.27
2023-01-17T07:02:18.262Z,3.77
2023-01-17T07:04:47.529Z,2.93
2023-01-17T07:07:16.832Z,2.50
2023-01-17T07:09:45.610Z,2.60
2023-01-17T07:12:14.811Z,2.00
2023-01-17T07:14:45.121Z,2.03
2023-01-17T07:17:14.119Z,2.53
2023-01-17T07:19:43.282Z,2.00
2023-01-17T07:22:12.555Z,2.97
2023-01-17T07:24:41.448Z,2.97
2023-01-17T07:27:10.642Z,2.90
2023-01-17T07:29:39.848Z,2.17
2023-01-17T07:32:11.163Z,2.40
2023-01-17T07:34:40.045Z,2.57
2023-01-17T07:37:09.195Z,2.07
2023-01-17T07:39:38.675Z,1.70
2023-01-17T07:42:07.806Z,2.10
2023-01-17T07:44:36.617Z,2.10
2023-01-17T07:47:05.460Z,2.33
2023-01-17T07:49:35.740Z,3.30
2023-01-17T07:52:04.645Z,3.00
2023-01-17T07:54:33.616Z,3.53
2023-01-17T07:57:02.935Z,3.20
2023-01-17T07:59:34.194Z,3.17
2023-01-17T08:02:03.170Z,2.67
2023-01-17T08:04:35.699Z,2.73
2023-01-17T08:07:06.410Z,2.60
2023-01-17T08:09:35.699Z,2.33
2023-01-17T08:12:05.172Z,2.30
2023-01-17T08:14:34.118Z,2.33
2023-01-17T08:17:06.532Z,2.27
2023-01-17T08:19:35.766Z,1.90
2023-01-17T08:22:06.661Z,2.03
2023-01-17T08:24:35.482Z,2.40
2023-01-17T08:27:04.680Z,2.50
2023-01-17T08:29:34.095Z,2.40
2023-01-17T08:32:03.198Z,2.00
2023-01-17T08:34:32.333Z,2.90
2023-01-17T08:37:01.240Z,3.00
2023-01-17T08:39:31.296Z,3.40
2023-01-17T08:42:00.216Z,3.67
2023-01-17T08:44:29.299Z,3.47
2023-01-17T08:46:58.339Z,2.83
2023-01-17T08:49:30.314Z,2.33
2023-01-17T08:51:59.206Z,3.50
2023-01-17T08:54:29.255Z,2.70
2023-01-17T08:56:59.369Z,2.97
2023-01-17T08:59:28.095Z,2.87
2023-01-17T09:01:58.601Z,4.17
2023-01-17T09:04:27.901Z,3.70
2023-01-17T09:06:57.024Z,3.23
2023-01-17T09:09:26.365Z,3.03
2023-01-17T09:11:55.747Z,3.37
2023-01-17T09:14:25.727Z,3.10
2023-01-17T09:16:54.667Z,2.87
2023-01-17T09:19:23.718Z,2.90
2023-01-17T09:21:52.739Z,2.00
2023-01-17T09:24:21.808Z,2.40
2023-01-17T09:26:51.422Z,2.73
2023-01-17T09:29:20.267Z,2.10
2023-01-17T09:31:50.419Z,1.50
2023-01-17T09:34:19.839Z,1.50
2023-01-17T09:36:48.835Z,1.50
2023-01-17T09:39:18.074Z,1.60
2023-01-17T09:41:53.631Z,2.30
2023-01-17T09:44:28.463Z,1.83
2023-01-17T09:47:05.762Z,2.30
2023-01-17T09:49:40.048Z,1.87
2023-01-17T09:52:13.895Z,2.23
2023-01-17T09:54:44.790Z,2.00
2023-01-17T09:57:28.297Z,2.30
2023-01-17T10:00:05.185Z,1.70
2023-01-17T10:02:57.076Z,1.40
2023-01-17T10:05:40.192Z,1.77
2023-01-17T10:08:25.352Z,1.63
2023-01-17T10:11:17.526Z,1.43
2023-01-17T10:13:55.266Z,1.50
2023-01-17T10:16:35.808Z,1.80
2023-01-17T10:19:31.867Z,1.27
2023-01-17T10:22:10.543Z,0.90
2023-01-17T10:25:14.686Z,0.80
2023-01-17T10:27:49.252Z,1.20
2023-01-17T10:30:22.882Z,1.30
2023-01-17T10:32:52.955Z,1.50
2023-01-17T10:35:28.379Z,1.80
2023-01-17T10:37:59.985Z,2.00
2023-01-17T10:40:41.507Z,1.23
2023-01-17T10:43:17.013Z,1.27
2023-01-17T10:45:53.592Z,1.20
2023-01-17T10:48:36.184Z,1.20
2023-01-17T10:51:18.178Z,1.90
2023-01-17T10:54:02.601Z,2.07
2023-01-17T10:56:32.752Z,1.67
2023-01-17T10:59:17.732Z,1.30
2023-01-17T11:01:51.110Z,1.90
2023-01-17T11:04:23.426Z,1.97
2023-01-17T11:07:15.285Z,4.93
2023-01-17T11:09:46.106Z,1.80
2023-01-17T11:12:22.351Z,1.27
2023-01-17T11:15:05.568Z,1.33
2023-01-17T11:17:38.299Z,1.90
2023-01-17T11:20:21.590Z,1.47
2023-01-17T11:23:04.626Z,1.57
2023-01-17T11:25:35.442Z,1.30
2023-01-17T11:28:07.196Z,1.30
2023-01-17T11:30:36.071Z,1.30
2023-01-17T11:33:06.478Z,1.30
2023-01-17T11:35:37.171Z,1.50
2023-01-17T11:38:13.394Z,1.90
2023-01-17T11:40:44.106Z,2.50
2023-01-17T11:43:27.077Z,2.07
2023-01-17T11:46:05.211Z,1.73
2023-01-17T11:48:41.575Z,1.93
2023-01-17T11:51:22.087Z,2.10
2023-01-17T11:53:52.677Z,1.53
2023-01-17T11:56:33.652Z,1.80
2023-01-17T11:59:25.679Z,1.60
2023-01-17T12:02:15.800Z,1.60
2023-01-17T12:04:48.265Z,1.55
2023-01-17T12:07:26.669Z,2.63
2023-01-17T12:10:04.262Z,1.52
2023-01-17T12:13:02.263Z,1.50
2023-01-17T12:15:42.496Z,1.85
2023-01-17T12:18:35.104Z,2.10
2023-01-17T12:21:18.415Z,1.20
2023-01-17T12:24:04.117Z,1.50
2023-01-17T12:26:40.802Z,2.03
2023-01-17T12:29:35.655Z,1.55
2023-01-17T12:32:29.246Z,1.40
2023-01-17T12:35:04.754Z,1.60
2023-01-17T12:37:38.934Z,1.10
2023-01-17T12:40:15.721Z,1.45
2023-01-17T12:42:51.618Z,1.10
2023-01-17T12:45:25.847Z,1.40
2023-01-17T12:48:02.064Z,1.10
2023-01-17T12:50:37.524Z,1.10
2023-01-17T12:53:16.151Z,1.20
2023-01-17T12:55:53.865Z,0.95
2023-01-17T12:58:30.485Z,1.40
2023-01-17T13:01:06.370Z,1.67
2023-01-17T13:03:47.741Z,3.40
2023-01-17T13:06:25.090Z,3.07
2023-01-17T13:08:57.068Z,2.10
2023-01-17T13:11:37.643Z,2.30
2023-01-17T13:14:12.040Z,1.13
2023-01-17T13:16:44.579Z,1.57
2023-01-17T13:19:18.631Z,1.17
2023-01-17T13:21:52.692Z,1.50
2023-01-17T13:24:31.588Z,2.00
2023-01-17T13:27:32.998Z,1.63
2023-01-17T13:30:28.099Z,2.43
2023-01-17T13:33:23.274Z,2.10
2023-01-17T13:36:02.410Z,2.27
2023-01-17T13:38:43.895Z,1.30
2023-01-17T13:41:29.897Z,1.23
2023-01-17T13:44:16.297Z,1.60
2023-01-17T13:47:04.943Z,1.80
2023-01-17T13:49:36.900Z,1.20
2023-01-17T13:52:12.674Z,1.40
2023-01-17T13:54:46.410Z,2.23
2023-01-17T13:57:41.207Z,1.20
2023-01-17T14:00:51.147Z,1.10
2023-01-17T14:03:53.303Z,1.33
2023-01-17T14:06:41.801Z,1.20
2023-01-17T14:09:27.814Z,1.00
2023-01-17T14:12:04.169Z,1.10
2023-01-17T14:14:58.267Z,1.30
2023-01-17T14:17:59.552Z,0.93
2023-01-17T14:20:53.562Z,1.20
2023-01-17T14:23:55.824Z,1.40
2023-01-17T14:26:49.565Z,1.30
2023-01-17T14:30:01.749Z,1.57
2023-01-17T14:32:33.656Z,2.10
2023-01-17T14:35:02.960Z,1.97
2023-01-17T14:37:42.579Z,1.50
2023-01-17T14:40:23.006Z,1.73
2023-01-17T14:42:59.988Z,2.60
2023-01-17T14:45:31.311Z,2.03
2023-01-17T14:48:01.027Z,2.07
2023-01-17T14:50:37.191Z,2.60
2023-01-17T14:53:17.546Z,2.50
2023-01-17T14:56:17.553Z,2.37
2023-01-17T14:58:47.177Z,2.23
2023-01-17T15:01:18.254Z,1.93
2023-01-17T15:03:48.313Z,1.50
2023-01-17T15:06:20.518Z,2.90
2023-01-17T15:08:50.517Z,1.67
2023-01-17T15:11:24.588Z,2.67
2023-01-17T15:13:57.966Z,2.40
2023-01-17T15:16:30.443Z,2.60
2023-01-17T15:19:00.281Z,3.43
2023-01-17T15:21:32.803Z,3.80
2023-01-17T15:24:02.928Z,4.33
2023-01-17T15:26:36.695Z,2.37
2023-01-17T15:29:08.614Z,4.00
2023-01-17T15:31:43.356Z,9.60
2023-01-17T15:34:24.409Z,6.43
2023-01-17T15:36:58.093Z,5.07
2023-01-17T15:39:30.553Z,8.40
2023-01-17T15:42:02.827Z,8.97
2023-01-17T15:44:48.541Z,6.87
2023-01-17T15:47:29.087Z,5.90
2023-01-17T15:49:58.601Z,5.00
2023-01-17T15:52:27.509Z,5.03
2023-01-17T15:55:00.479Z,5.27
2023-01-17T15:57:36.910Z,6.20
2023-01-17T16:00:20.703Z,5.57
2023-01-17T16:02:55.406Z,8.37
2023-01-17T16:05:44.027Z,7.33
2023-01-17T16:08:40.285Z,7.87
2023-01-17T16:11:13.597Z,9.97
2023-01-17T16:13:47.852Z,8.13
2023-01-17T16:16:21.286Z,10.03
2023-01-17T16:18:54.517Z,8.77
2023-01-17T16:21:26.931Z,10.07
2023-01-17T16:23:56.666Z,9.93
2023-01-17T16:26:25.550Z,10.67
2023-01-17T16:28:56.282Z,12.33
2023-01-17T16:31:25.651Z,11.33
2023-01-17T16:33:56.753Z,11.13
2023-01-17T16:36:26.443Z,13.50
2023-01-17T16:38:56.424Z,12.97
2023-01-17T16:41:25.905Z,11.57
2023-01-17T16:44:02.182Z,13.87
2023-01-17T16:46:31.875Z,12.40
2023-01-17T16:49:02.244Z,13.03
2023-01-17T16:51:31.345Z,12.20
2023-01-17T16:54:00.751Z,14.43
2023-01-17T16:56:30.335Z,21.23
2023-01-17T16:59:01.449Z,17.10
2023-01-17T17:01:31.663Z,12.70
2023-01-17T17:04:00.962Z,9.80
2023-01-17T17:06:30.435Z,7.77
2023-01-17T17:09:00.887Z,6.87
2023-01-17T17:11:30.652Z,7.30
2023-01-17T17:14:01.681Z,8.33
2023-01-17T17:16:33.430Z,9.13
2023-01-17T17:19:04.008Z,8.97
2023-01-17T17:21:35.482Z,8.90
2023-01-17T17:24:10.146Z,8.40
2023-01-17T17:26:39.899Z,8.20
2023-01-17T17:29:13.064Z,8.90
2023-01-17T17:31:43.080Z,8.33
2023-01-17T17:34:17.639Z,10.20
2023-01-17T17:36:47.350Z,9.20
2023-01-17T17:39:16.736Z,11.50
2023-01-17T17:41:47.318Z,10.00
2023-01-17T17:44:19.089Z,10.30
2023-01-17T17:46:51.753Z,11.10
2023-01-17T17:49:23.265Z,10.60
2023-01-17T17:51:53.072Z,10.93
2023-01-17T17:54:22.634Z,9.43
2023-01-17T17:56:52.519Z,11.23
2023-01-17T17:59:24.147Z,11.90
2023-01-17T18:01:53.909Z,11.93
2023-01-17T18:04:23.638Z,12.77
2023-01-17T18:06:52.529Z,11.80
2023-01-17T18:09:21.511Z,15.80
2023-01-17T18:11:50.903Z,17.63
2023-01-17T18:14:21.540Z,16.47
2023-01-17T18:16:52.310Z,18.47
2023-01-17T18:19:23.245Z,15.47
2023-01-17T18:21:53.298Z,14.20
2023-01-17T18:24:24.403Z,14.60
2023-01-17T18:26:54.650Z,18.83
2023-01-17T18:29:25.115Z,18.73
2023-01-17T18:31:56.957Z,18.30
2023-01-17T18:34:29.649Z,15.97
2023-01-17T18:36:59.713Z,17.03
2023-01-17T18:39:30.540Z,19.60
2023-01-17T18:42:00.070Z,21.63
2023-01-17T18:44:30.509Z,19.83
2023-01-17T18:47:04.933Z,18.33
2023-01-17T18:49:34.857Z,18.73
2023-01-17T18:52:05.174Z,20.23
2023-01-17T18:54:34.396Z,25.23
2023-01-17T18:57:03.698Z,24.70
2023-01-17T18:59:33.428Z,23.87
2023-01-17T19:02:05.729Z,24.43
2023-01-17T19:04:36.278Z,27.60
2023-01-17T19:07:05.559Z,26.53
2023-01-17T19:09:35.154Z,28.77
2023-01-17T19:12:04.775Z,31.50
2023-01-17T19:14:34.136Z,27.17
2023-01-17T19:17:05.752Z,26.07
2023-01-17T19:19:34.868Z,26.20
2023-01-17T19:22:04.112Z,25.30
2023-01-17T19:24:35.987Z,25.00
2023-01-17T19:27:07.306Z,25.73
2023-01-17T19:29:36.624Z,24.03
2023-01-17T19:32:10.379Z,23.37
2023-01-17T19:34:39.637Z,26.60
2023-01-17T19:37:09.049Z,21.87
2023-01-17T19:39:39.023Z,17.80
2023-01-17T19:42:14.652Z,14.10
2023-01-17T19:44:46.755Z,13.57
2023-01-17T19:47:17.135Z,13.73
2023-01-17T19:49:46.556Z,11.60
2023-01-17T19:52:16.180Z,14.50
2023-01-17T19:54:45.630Z,11.67
2023-01-17T19:57:15.390Z,17.97
2023-01-17T19:59:46.318Z,13.60
2023-01-17T20:02:16.108Z,14.93
2023-01-17T20:04:47.020Z,14.30
2023-01-17T20:07:16.699Z,16.83
2023-01-17T20:09:46.522Z,15.93
2023-01-17T20:12:16.112Z,13.77
2023-01-17T20:14:46.222Z,10.50
2023-01-17T20:17:15.815Z,11.67
2023-01-17T20:19:49.849Z,10.70
2023-01-17T20:22:19.171Z,8.57
2023-01-17T20:24:51.051Z,7.60
2023-01-17T20:27:22.206Z,8.03
2023-01-17T20:29:52.166Z,9.87
2023-01-17T20:32:21.759Z,10.67
2023-01-17T20:34:52.652Z,11.60
2023-01-17T20:37:22.885Z,10.07
2023-01-17T20:39:54.427Z,10.10
2023-01-17T20:42:23.825Z,10.00
2023-01-17T20:44:53.054Z,8.90
2023-01-17T20:47:22.445Z,14.00
2023-01-17T20:49:54.050Z,13.17
2023-01-17T20:52:23.547Z,9.27
2023-01-17T20:54:52.800Z,10.97
2023-01-17T20:57:23.360Z,10.77
2023-01-17T20:59:52.644Z,9.50
2023-01-17T21:02:22.564Z,9.07
2023-01-17T21:05:13.141Z,15.47
2023-01-17T21:07:42.666Z,10.03
2023-01-17T21:10:12.489Z,10.17
2023-01-17T21:12:41.897Z,12.17
2023-01-17T21:15:17.578Z,13.40
2023-01-17T21:17:47.467Z,14.03
2023-01-17T21:20:19.056Z,15.93
2023-01-17T21:22:48.509Z,13.47
2023-01-17T21:25:18.023Z,12.97
2023-01-17T21:27:47.555Z,13.50
2023-01-17T21:30:16.764Z,11.67
2023-01-17T21:32:46.264Z,11.87
2023-01-17T21:35:15.362Z,11.53
2023-01-17T21:37:49.510Z,11.90
2023-01-17T21:40:19.230Z,12.97
2023-01-17T21:42:48.857Z,12.97
2023-01-17T21:45:18.286Z,12.80
2023-01-17T21:47:50.432Z,12.57
2023-01-17T21:50:32.786Z,10.87
2023-01-17T21:53:05.256Z,10.37
2023-01-17T21:55:52.057Z,12.97
2023-01-17T21:58:39.009Z,11.83
2023-01-17T22:01:16.315Z,11.10
2023-01-17T22:03:46.578Z,12.43
2023-01-17T22:06:16.044Z,11.97
2023-01-17T22:08:47.259Z,11.57
2023-01-17T22:11:18.172Z,12.30
2023-01-17T22:13:47.610Z,12.97
2023-01-17T22:16:18.358Z,14.40
2023-01-17T22:18:48.300Z,15.90
2023-01-17T22:21:19.408Z,16.27
2023-01-17T22:23:51.852Z,16.93
2023-01-17T22:26:22.178Z,14.40
2023-01-17T22:28:51.624Z,15.50
2023-01-17T22:31:22.833Z,16.13
2023-01-17T22:33:55.364Z,16.93
2023-01-17T22:36:24.763Z,16.67
2023-01-17T22:38:55.738Z,15.97
2023-01-17T22:41:28.286Z,16.03
2023-01-17T22:43:58.721Z,15.40
2023-01-17T22:46:29.883Z,15.10
2023-01-17T22:49:00.365Z,14.07
2023-01-17T22:51:30.612Z,16.03
2023-01-17T22:54:02.734Z,15.63
2023-01-17T22:56:34.111Z,15.43
2023-01-17T22:59:04.294Z,16.47
2023-01-17T23:01:34.770Z,16.57
2023-01-17T23:04:06.036Z,15.97
2023-01-17T23:06:37.221Z,15.33
2023-01-17T23:09:10.601Z,18.30
2023-01-17T23:11:41.263Z,19.07
2023-01-17T23:14:16.720Z,21.03
2023-01-17T23:17:05.591Z,18.73
2023-01-17T23:19:37.276Z,18.43
2023-01-17T23:22:20.828Z,17.67
2023-01-17T23:24:54.109Z,19.30
2023-01-17T23:27:43.393Z,18.67
2023-01-17T23:30:14.138Z,17.83
2023-01-17T23:32:46.955Z,18.93
2023-01-17T23:35:18.726Z,18.00
2023-01-17T23:38:06.000Z,16.90
2023-01-17T23:40:38.274Z,17.27
2023-01-17T23:43:24.599Z,16.47
2023-01-17T23:45:55.878Z,17.47
2023-01-17T23:48:28.083Z,17.60
2023-01-17T23:50:59.835Z,17.60
2023-01-17T23:53:29.543Z,17.77
2023-01-17T23:56:01.272Z,16.10
2023-01-17T23:58:30.375Z,16.13
